createdAt,value
2022-08-05T00:04:56.768Z,24.76
2022-08-05T00:09:59.328Z,22.71
2022-08-05T00:15:54.382Z,21.62
2022-08-05T00:20:22.829Z,21.65
2022-08-05T00:25:45.338Z,21.98
2022-08-05T00:30:47.549Z,22.07
2022-08-05T00:36:16.439Z,22.13
2022-08-05T00:41:26.616Z,22.36
2022-08-05T00:46:42.548Z,22.02
2022-08-05T00:51:50.547Z,22.05
2022-08-05T00:56:53.794Z,22.14
2022-08-05T01:01:55.529Z,21.84
2022-08-05T01:06:57.322Z,22.23
2022-08-05T01:12:09.378Z,22.45
2022-08-05T01:17:40.346Z,22.65
2022-08-05T01:23:25.732Z,22.69
2022-08-05T01:28:45.487Z,22.42
2022-08-05T01:33:55.398Z,22.42
2022-08-05T01:39:00.958Z,22.35
2022-08-05T01:44:03.991Z,22.50
2022-08-05T01:49:23.724Z,22.27
2022-08-05T01:54:32.209Z,22.39
2022-08-05T01:59:37.879Z,22.32
2022-08-05T02:04:42.735Z,22.02
2022-08-05T02:09:48.084Z,22.04
2022-08-05T02:15:19.789Z,22.16
2022-08-05T02:20:28.019Z,22.12
2022-08-05T02:25:49.246Z,22.32
2022-08-05T02:30:58.358Z,22.33
2022-08-05T02:36:02.417Z,22.47
2022-08-05T02:41:14.679Z,22.59
2022-08-05T02:46:27.447Z,22.54
2022-08-05T02:52:03.026Z,22.54
2022-08-05T02:56:52.732Z,22.41
2022-08-05T03:02:00.699Z,22.55
2022-08-05T03:07:02.886Z,22.47
2022-08-05T03:12:05.723Z,22.40
2022-08-05T03:17:09.114Z,22.47
2022-08-05T03:22:15.960Z,22.41
2022-08-05T03:27:20.667Z,22.29
2022-08-05T03:32:30.881Z,22.32
2022-08-05T03:37:45.806Z,22.34
2022-08-05T03:42:51.660Z,22.35
2022-08-05T03:47:57.146Z,22.39
2022-08-05T03:55:53.869Z,22.40
2022-08-05T03:58:38.015Z,22.31
2022-08-05T04:04:05.471Z,22.38
2022-08-05T04:09:10.226Z,22.33
2022-08-05T04:14:18.081Z,22.34
2022-08-05T04:19:20.643Z,22.25
2022-08-05T04:24:25.224Z,22.13
2022-08-05T04:29:29.415Z,21.83
2022-08-05T04:34:35.159Z,21.73
2022-08-05T04:39:39.220Z,21.95
2022-08-05T04:44:41.994Z,22.03
2022-08-05T04:50:02.025Z,21.58
2022-08-05T04:55:13.968Z,21.15
2022-08-05T05:00:17.248Z,21.10
2022-08-05T05:05:28.734Z,21.35
2022-08-05T05:10:33.331Z,21.48
2022-08-05T05:15:57.848Z,21.36
2022-08-05T05:20:57.405Z,21.31
2022-08-05T05:26:00.449Z,21.36
2022-08-05T05:31:02.453Z,21.35
2022-08-05T05:36:07.831Z,21.40
2022-08-05T05:41:12.278Z,21.36
2022-08-05T05:46:18.808Z,21.63
2022-08-05T05:51:25.757Z,21.64
2022-08-05T05:56:34.136Z,21.35
2022-08-05T06:01:39.833Z,21.42
2022-08-05T06:06:47.349Z,21.37
2022-08-05T06:12:01.002Z,21.67
2022-08-05T06:17:22.560Z,21.52
2022-08-05T06:22:29.686Z,21.84
2022-08-05T06:28:11.314Z,22.24
2022-08-05T06:32:54.153Z,22.43
2022-08-05T06:37:59.001Z,22.41
2022-08-05T06:43:02.870Z,22.33
2022-08-05T06:48:47.377Z,22.55
2022-08-05T06:53:28.639Z,23.17
2022-08-05T06:58:36.171Z,23.90
2022-08-05T07:03:38.521Z,24.14
2022-08-05T07:08:40.238Z,24.34
2022-08-05T07:14:02.790Z,24.48
2022-08-05T07:19:06.509Z,24.81
2022-08-05T07:24:11.466Z,24.91
2022-08-05T07:29:14.025Z,25.08
2022-08-05T07:34:16.133Z,25.46
2022-08-05T07:39:24.880Z,25.80
2022-08-05T07:44:46.319Z,25.66
2022-08-05T07:49:54.201Z,25.75
2022-08-05T07:54:57.306Z,25.89
2022-08-05T07:59:59.866Z,25.99
2022-08-05T08:05:01.756Z,25.97
2022-08-05T08:10:04.588Z,25.97
2022-08-05T08:15:15.217Z,25.85
2022-08-05T08:20:42.499Z,25.92
2022-08-05T08:26:00.870Z,26.12
2022-08-05T08:31:00.785Z,25.96
2022-08-05T08:36:18.731Z,26.24
2022-08-05T08:41:51.398Z,26.55
2022-08-05T08:46:51.350Z,26.68
2022-08-05T08:52:13.287Z,26.90
2022-08-05T08:57:15.915Z,27.35
2022-08-05T09:02:21.002Z,27.85
2022-08-05T09:07:28.821Z,28.33
2022-08-05T09:12:41.314Z,28.33
2022-08-05T09:17:49.324Z,28.42
2022-08-05T09:23:22.075Z,27.88
2022-08-05T09:28:32.078Z,27.64
2022-08-05T09:33:51.516Z,27.87
2022-08-05T09:38:57.297Z,28.02
2022-08-05T09:43:59.102Z,27.76
2022-08-05T09:49:19.365Z,27.16
2022-08-05T09:54:31.458Z,27.47
2022-08-05T09:59:34.785Z,27.52
2022-08-05T10:04:39.877Z,27.50
2022-08-05T10:10:04.042Z,27.58
2022-08-05T10:15:25.707Z,27.53
2022-08-05T10:20:33.495Z,27.25
2022-08-05T10:25:36.120Z,26.61
2022-08-05T10:32:53.760Z,26.34
2022-08-05T10:36:08.329Z,26.62
2022-08-05T10:41:46.908Z,26.35
2022-08-05T10:46:54.028Z,26.14
2022-08-05T10:52:02.595Z,25.66
2022-08-05T10:57:06.989Z,25.65
2022-08-05T11:02:14.811Z,26.12
2022-08-05T11:08:02.494Z,26.39
2022-08-05T11:13:01.167Z,26.48
2022-08-05T11:18:30.003Z,26.57
2022-08-05T11:24:02.712Z,26.90
2022-08-05T11:29:11.779Z,26.74
2022-08-05T11:34:17.204Z,26.65
2022-08-05T11:39:55.576Z,27.32
2022-08-05T11:45:23.166Z,27.63
2022-08-05T11:50:39.455Z,27.41
2022-08-05T11:56:02.177Z,27.13
2022-08-05T12:01:19.019Z,27.36
2022-08-05T12:06:25.147Z,27.65
2022-08-05T12:11:52.285Z,26.86
2022-08-05T12:16:54.035Z,26.57
2022-08-05T12:21:57.217Z,26.63
2022-08-05T12:27:09.464Z,26.65
2022-08-05T12:32:16.958Z,26.41
2022-08-05T12:37:21.839Z,26.76
2022-08-05T12:42:29.235Z,26.75
2022-08-05T12:47:32.270Z,26.39
2022-08-05T12:52:42.233Z,26.04
2022-08-05T12:58:38.513Z,26.25
2022-08-05T13:03:08.490Z,26.38
2022-08-05T13:08:18.663Z,26.53
2022-08-05T13:14:06.341Z,26.16
2022-08-05T13:18:55.260Z,25.33
2022-08-05T13:24:00.599Z,24.84
2022-08-05T13:29:06.245Z,24.64
2022-08-05T13:34:25.542Z,24.15
2022-08-05T13:40:15.038Z,23.72
2022-08-05T13:44:57.496Z,23.66
2022-08-05T13:50:04.578Z,23.83
2022-08-05T13:55:08.003Z,23.73
2022-08-05T14:00:11.889Z,23.96
2022-08-05T14:05:29.506Z,24.13
2022-08-05T14:10:37.528Z,24.59
2022-08-05T14:16:07.597Z,24.76
2022-08-05T14:21:01.131Z,24.74
2022-08-05T14:26:36.784Z,24.89
2022-08-05T14:32:03.859Z,25.09
2022-08-05T14:37:02.617Z,25.29
2022-08-05T14:42:21.359Z,25.28
2022-08-05T14:48:02.912Z,24.96
2022-08-05T14:52:57.544Z,25.01
2022-08-05T14:58:00.279Z,24.61
2022-08-05T15:03:02.068Z,24.68
2022-08-05T15:08:16.830Z,24.97
2022-08-05T15:13:44.915Z,25.14
2022-08-05T15:18:47.237Z,25.18
2022-08-05T15:23:49.415Z,25.02
2022-08-05T15:28:52.012Z,25.36
2022-08-05T15:34:19.541Z,25.40
2022-08-05T15:40:58.762Z,24.98
2022-08-05T15:44:43.755Z,24.81
2022-08-05T15:49:58.721Z,25.30
2022-08-05T15:55:08.162Z,25.66
2022-08-05T16:00:13.207Z,25.71
2022-08-05T16:05:18.792Z,25.59
2022-08-05T16:10:23.325Z,25.36
2022-08-05T16:15:32.265Z,25.36
2022-08-05T16:20:34.639Z,24.42
2022-08-05T16:25:37.152Z,24.18
2022-08-05T16:30:39.516Z,23.97
2022-08-05T16:35:44.653Z,23.88
2022-08-05T16:40:55.474Z,23.49
2022-08-05T16:46:23.528Z,23.44
2022-08-05T16:51:30.728Z,23.49
2022-08-05T16:56:44.505Z,23.52
2022-08-05T17:01:54.365Z,23.70
2022-08-05T17:07:01.487Z,23.91
2022-08-05T17:12:03.740Z,23.92
2022-08-05T17:17:15.090Z,23.88
2022-08-05T17:22:24.672Z,23.71
2022-08-05T17:27:33.318Z,23.53
2022-08-05T17:32:35.967Z,23.68
2022-08-05T17:37:41.942Z,23.60
2022-08-05T17:42:50.665Z,23.57
2022-08-05T17:47:56.191Z,23.60
2022-08-05T17:53:04.720Z,23.88
2022-08-05T17:58:11.192Z,23.87
2022-08-05T18:03:24.141Z,23.67
2022-08-05T18:08:37.247Z,23.46
2022-08-05T18:13:44.509Z,23.38
2022-08-05T18:18:47.782Z,23.15
2022-08-05T18:23:53.976Z,22.76
2022-08-05T18:29:01.862Z,22.61
2022-08-05T18:34:06.104Z,22.20
2022-08-05T18:39:42.435Z,21.91
2022-08-05T18:44:51.699Z,21.73
2022-08-05T18:50:16.136Z,21.52
2022-08-05T18:55:18.008Z,21.41
2022-08-05T19:00:21.057Z,21.34
2022-08-05T19:06:12.425Z,21.19
2022-08-05T19:10:52.470Z,21.00
2022-08-05T19:16:03.802Z,21.11
2022-08-05T19:21:05.873Z,21.16
2022-08-05T19:26:11.264Z,21.12
2022-08-05T19:31:19.312Z,20.81
2022-08-05T19:36:24.336Z,20.64
2022-08-05T19:41:58.185Z,20.53
2022-08-05T19:46:50.237Z,20.44
2022-08-05T19:52:13.189Z,20.34
2022-08-05T19:57:15.460Z,20.25
2022-08-05T20:02:20.429Z,20.23
2022-08-05T20:07:47.244Z,20.26
2022-08-05T20:12:45.921Z,20.19
2022-08-05T20:17:49.961Z,20.22
2022-08-05T20:22:52.289Z,20.14
2022-08-05T20:27:54.017Z,20.01
2022-08-05T20:32:59.350Z,19.81
2022-08-05T20:38:05.857Z,19.71
2022-08-05T20:43:10.693Z,19.57
2022-08-05T20:48:12.662Z,19.48
2022-08-05T20:53:36.749Z,19.44
2022-08-05T20:58:40.254Z,19.18
2022-08-05T21:03:48.075Z,19.13
2022-08-05T21:08:50.568Z,18.98
2022-08-05T21:13:56.410Z,18.79
2022-08-05T21:19:00.949Z,18.74
2022-08-05T21:24:04.492Z,18.62
2022-08-05T21:29:07.186Z,18.21
2022-08-05T21:34:11.910Z,17.95
2022-08-05T21:39:14.366Z,18.02
2022-08-05T21:44:18.959Z,17.95
2022-08-05T21:50:00.301Z,17.38
2022-08-05T21:54:51.287Z,17.54
2022-08-05T22:00:05.284Z,17.45
2022-08-05T22:05:09.312Z,17.31
2022-08-05T22:10:11.247Z,17.25
2022-08-05T22:15:16.640Z,17.10
2022-08-05T22:20:38.981Z,17.09
2022-08-05T22:26:09.821Z,17.04
2022-08-05T22:31:13.302Z,17.06
2022-08-05T22:36:17.281Z,16.92
2022-08-05T22:42:04.820Z,16.82
2022-08-05T22:46:42.124Z,16.66
2022-08-05T22:52:05.527Z,16.59
2022-08-05T22:57:08.726Z,16.46
2022-08-05T23:02:10.801Z,16.32
2022-08-05T23:07:12.620Z,16.19
2022-08-05T23:12:16.397Z,16.15
2022-08-05T23:17:34.492Z,16.14
2022-08-05T23:22:39.655Z,15.90
2022-08-05T23:27:42.399Z,15.83
2022-08-05T23:32:59.389Z,15.83
2022-08-05T23:38:01.923Z,15.78
2022-08-05T23:43:11.477Z,15.71
2022-08-05T23:48:25.332Z,15.64
2022-08-05T23:53:46.491Z,15.51
2022-08-05T23:58:48.665Z,15.17
